Time;durP1;ratioP1;P1;durP2;ratioP2;P2;SDS_P1;SDS_P2;PMS_P1;PMS_P2;Temp;Humidity;BMP_temperature;BMP_pressure;BME280_temperature;BME280_humidity;BME280_pressure;Samples;Min_cycle;Max_cycle;Signal;HPM_P1;HPM_P2
2021/05/03 00:00:22;;;;;;;24.80;21.38;;;21.10;83.40;;;;;;4962173;28;20038;-68
2021/05/03 00:02:49;;;;;;;23.90;21.40;;;21.10;83.50;;;;;;4974251;28;20038;-69
2021/05/03 00:05:35;;;;;;;29.42;20.70;;;21.20;82.60;;;;;;4955751;29;20040;-72
2021/05/03 00:08:02;;;;;;;27.67;21.77;;;21.20;81.90;;;;;;4942473;29;20360;-67
2021/05/03 00:10:29;;;;;;;23.45;20.27;;;21.40;82.50;;;;;;4958981;28;20045;-69
2021/05/03 00:12:57;;;;;;;23.13;20.05;;;21.40;82.00;;;;;;4974514;28;20022;-67
2021/05/03 00:15:24;;;;;;;23.88;20.25;;;21.50;81.30;;;;;;4973203;28;20248;-69
2021/05/03 00:17:51;;;;;;;22.85;19.50;;;21.50;81.60;;;;;;4973600;28;20089;-69
2021/05/03 00:20:19;;;;;;;22.85;19.85;;;21.60;81.70;;;;;;4956958;28;20230;-67
2021/05/03 00:22:46;;;;;;;24.10;20.10;;;21.60;80.80;;;;;;4959045;28;20403;-70
2021/05/03 00:25:13;;;;;;;20.70;18.45;;;21.70;80.50;;;;;;4967491;28;20069;-68
2021/05/03 00:27:42;;;;;;;26.77;19.20;;;21.90;79.10;;;;;;4964572;28;20344;-71
2021/05/03 00:30:10;;;;;;;21.85;19.65;;;22.00;79.40;;;;;;4956950;28;20031;-70
2021/05/03 00:32:37;;;;;;;23.38;18.20;;;22.00;79.80;;;;;;4975840;28;20085;-70
2021/05/03 00:35:05;;;;;;;22.60;19.48;;;22.10;79.30;;;;;;4958697;28;20031;-68
2021/05/03 00:37:33;;;;;;;20.27;18.10;;;22.10;79.70;;;;;;4951155;28;20070;-69
2021/05/03 00:40:00;;;;;;;23.90;20.48;;;22.10;78.30;;;;;;4964994;28;20050;-70
2021/05/03 00:42:27;;;;;;;21.48;19.10;;;22.20;79.40;;;;;;4971621;28;20035;-69
2021/05/03 00:44:55;;;;;;;19.70;17.60;;;22.20;79.00;;;;;;4972964;28;20066;-70
2021/05/03 00:47:23;;;;;;;19.55;17.13;;;22.40;78.50;;;;;;4957206;28;20027;-70
2021/05/03 00:49:51;;;;;;;20.08;17.15;;;22.40;77.70;;;;;;4958329;28;20069;-69
2021/05/03 00:52:18;;;;;;;19.90;17.48;;;22.50;76.70;;;;;;4938947;28;20035;-69
2021/05/03 00:54:46;;;;;;;20.75;17.15;;;22.60;77.40;;;;;;4962388;28;20449;-70
2021/05/03 00:57:13;;;;;;;19.90;17.50;;;22.70;76.60;;;;;;4970722;28;20062;-69
2021/05/03 00:59:40;;;;;;;21.20;16.27;;;22.70;76.90;;;;;;4955796;28;20035;-72
2021/05/03 01:02:08;;;;;;;17.38;15.57;;;22.80;76.30;;;;;;4957403;28;20108;-69
2021/05/03 01:04:35;;;;;;;20.25;17.25;;;22.90;76.00;;;;;;4955496;28;20051;-70
2021/05/03 01:07:03;;;;;;;17.20;15.40;;;23.00;76.40;;;;;;4955803;28;20513;-68
2021/05/03 01:09:30;;;;;;;17.27;14.95;;;22.90;76.60;;;;;;4965783;28;20509;-69
2021/05/03 01:11:58;;;;;;;17.73;15.88;;;23.00;74.90;;;;;;4955879;28;20043;-69
2021/05/03 01:14:25;;;;;;;20.08;16.17;;;23.00;75.90;;;;;;4972705;28;20056;-70
2021/05/03 01:16:53;;;;;;;29.50;16.75;;;23.00;76.60;;;;;;4961435;28;20049;-70
2021/05/03 01:19:21;;;;;;;17.67;15.60;;;23.00;76.30;;;;;;4971590;28;20038;-70
2021/05/03 01:21:51;;;;;;;21.85;16.20;;;23.10;74.50;;;;;;4972085;28;20039;-70
2021/05/03 01:24:19;;;;;;;18.23;16.20;;;23.30;75.10;;;;;;4969182;28;20063;-69
2021/05/03 01:26:47;;;;;;;16.80;15.15;;;23.30;75.20;;;;;;4965778;28;20030;-70
2021/05/03 01:29:16;;;;;;;18.10;16.17;;;23.30;75.20;;;;;;4955020;29;20339;-71
2021/05/03 01:31:48;;;;;;;17.85;16.05;;;23.40;74.00;;;;;;4957092;28;20086;-68
2021/05/03 01:34:16;;;;;;;18.67;15.25;;;23.40;73.90;;;;;;4960351;28;20027;-72
2021/05/03 01:36:46;;;;;;;19.67;16.40;;;23.60;73.50;;;;;;4954889;29;20034;-70
2021/05/03 01:39:16;;;;;;;17.27;15.57;;;23.70;73.40;;;;;;4973652;28;20126;-71
2021/05/03 01:41:44;;;;;;;17.60;14.35;;;23.70;73.80;;;;;;4975712;28;20031;-69
2021/05/03 01:44:15;;;;;;;17.48;13.68;;;23.70;73.00;;;;;;4974352;28;20031;-69
2021/05/03 01:46:42;;;;;;;16.55;13.95;;;23.90;71.30;;;;;;4970479;28;20023;-68
2021/05/03 01:49:10;;;;;;;16.63;14.33;;;23.90;73.10;;;;;;4882395;28;2358420;-70
2021/05/03 01:51:39;;;;;;;17.85;14.82;;;23.90;73.20;;;;;;4971554;28;20162;-70
2021/05/03 01:54:07;;;;;;;17.42;14.57;;;23.80;73.80;;;;;;4969884;28;20481;-69
2021/05/03 01:56:35;;;;;;;16.65;14.93;;;23.80;73.30;;;;;;4955887;28;20027;-65
2021/05/03 01:59:06;;;;;;;16.67;14.98;;;23.90;73.20;;;;;;4965755;28;20498;-66
2021/05/03 02:01:34;;;;;;;15.70;14.10;;;23.80;73.70;;;;;;4970325;28;20049;-64
2021/05/03 02:04:02;;;;;;;17.40;13.90;;;23.90;73.30;;;;;;4968674;28;20037;-65
2021/05/03 02:06:30;;;;;;;14.75;13.25;;;24.00;73.20;;;;;;4971277;28;20090;-64
2021/05/03 02:08:58;;;;;;;14.95;13.38;;;24.00;73.40;;;;;;4970044;28;20043;-64
2021/05/03 02:11:25;;;;;;;16.70;12.45;;;23.90;72.90;;;;;;4969560;28;20027;-65
2021/05/03 02:13:53;;;;;;;14.48;12.95;;;24.10;72.00;;;;;;4967979;28;20034;-64
2021/05/03 02:16:20;;;;;;;15.35;12.73;;;24.20;72.70;;;;;;4968835;28;20027;-67
2021/05/03 02:18:47;;;;;;;12.90;11.60;;;24.10;72.70;;;;;;4972291;28;20389;-61
2021/05/03 02:21:15;;;;;;;14.70;13.20;;;24.10;71.90;;;;;;4969774;28;20022;-61
2021/05/03 02:23:42;;;;;;;13.32;10.75;;;24.10;71.90;;;;;;4964170;28;20840;-65
2021/05/03 02:26:10;;;;;;;13.70;11.40;;;24.30;71.30;;;;;;4972582;28;20035;-67
2021/05/03 02:28:37;;;;;;;13.65;10.45;;;24.30;72.00;;;;;;4967741;28;20031;-67
2021/05/03 02:31:04;;;;;;;15.52;11.43;;;24.30;71.30;;;;;;4968472;28;20427;-64
2021/05/03 02:33:32;;;;;;;12.07;10.80;;;24.40;69.20;;;;;;4961899;28;21170;-64
2021/05/03 02:36:00;;;;;;;14.85;11.65;;;24.50;70.90;;;;;;4969902;28;20110;-66
2021/05/03 02:38:30;;;;;;;12.55;11.25;;;24.50;71.00;;;;;;4969351;28;20538;-66
2021/05/03 02:40:59;;;;;;;15.23;11.98;;;24.60;71.10;;;;;;4967974;28;20027;-67
2021/05/03 02:43:26;;;;;;;13.48;10.02;;;24.70;71.00;;;;;;4967133;28;20023;-68
2021/05/03 02:45:54;;;;;;;11.68;10.48;;;24.70;69.40;;;;;;4971018;28;20125;-66
2021/05/03 02:48:21;;;;;;;11.43;9.85;;;24.70;70.70;;;;;;4954417;28;20035;-66
2021/05/03 02:50:49;;;;;;;12.93;10.70;;;24.80;69.70;;;;;;4952465;28;20103;-66
2021/05/03 02:53:16;;;;;;;15.48;10.45;;;24.70;69.90;;;;;;4968361;28;20026;-62
2021/05/03 02:55:44;;;;;;;10.70;9.25;;;24.70;70.30;;;;;;4967094;28;20027;-70
2021/05/03 02:58:11;;;;;;;9.57;8.50;;;24.90;69.20;;;;;;4969660;28;20031;-62
2021/05/03 03:00:39;;;;;;;11.23;10.10;;;25.00;65.90;;;;;;4971062;28;20057;-67
2021/05/03 03:03:06;;;;;;;12.05;9.07;;;25.10;68.40;;;;;;4969204;28;20026;-67
2021/05/03 03:05:33;;;;;;;11.93;9.55;;;25.10;66.40;;;;;;4966243;28;20035;-63
2021/05/03 03:08:02;;;;;;;9.40;7.68;;;25.20;68.70;;;;;;4968912;28;20086;-66
2021/05/03 03:10:30;;;;;;;11.30;9.40;;;25.20;67.10;;;;;;4951748;28;20483;-67
2021/05/03 03:13:00;;;;;;;10.93;8.73;;;25.30;68.20;;;;;;4966378;28;20038;-66
2021/05/03 03:15:31;;;;;;;10.88;8.85;;;25.20;68.30;;;;;;4965996;28;20475;-66
2021/05/03 03:17:58;;;;;;;11.10;8.15;;;25.30;67.60;;;;;;4969464;28;20043;-67
2021/05/03 03:20:26;;;;;;;11.38;8.85;;;25.30;66.60;;;;;;4970198;28;20488;-61
2021/05/03 03:22:53;;;;;;;10.93;8.85;;;25.60;66.80;;;;;;4969074;28;20030;-70
2021/05/03 03:25:21;;;;;;;10.98;8.48;;;25.40;67.50;;;;;;4966286;28;20034;-68
2021/05/03 03:27:48;;;;;;;10.68;8.38;;;25.40;66.00;;;;;;4970672;28;20333;-67
2021/05/03 03:30:17;;;;;;;9.55;7.60;;;25.50;65.70;;;;;;4967900;28;20030;-68
2021/05/03 03:32:45;;;;;;;9.75;8.48;;;25.60;64.10;;;;;;4954061;28;20031;-67
2021/05/03 03:35:18;;;;;;;9.70;8.15;;;25.70;66.40;;;;;;4970692;28;20027;-68
2021/05/03 03:37:46;;;;;;;10.20;8.05;;;25.70;66.80;;;;;;4954587;28;20387;-68
2021/05/03 03:40:16;;;;;;;10.32;7.97;;;25.80;63.90;;;;;;4962220;28;20118;-67
2021/05/03 03:42:48;;;;;;;18.27;7.05;;;26.00;65.70;;;;;;4965289;28;20027;-66
2021/05/03 03:45:17;;;;;;;8.38;6.95;;;26.20;61.80;;;;;;4956152;28;20031;-67
2021/05/03 03:47:45;;;;;;;9.75;7.55;;;26.30;61.90;;;;;;4964396;28;20462;-67
2021/05/03 03:50:13;;;;;;;8.30;7.07;;;26.00;65.60;;;;;;4963957;28;20051;-69
2021/05/03 03:52:40;;;;;;;11.15;7.07;;;26.10;64.00;;;;;;4955988;28;20105;-69
2021/05/03 03:55:08;;;;;;;14.95;7.85;;;26.20;63.30;;;;;;4954973;28;20070;-67
2021/05/03 03:57:36;;;;;;;11.55;7.88;;;26.20;65.40;;;;;;4955819;28;20055;-68
2021/05/03 04:00:05;;;;;;;14.95;9.15;;;26.10;63.40;;;;;;4956077;28;20031;-65
2021/05/03 04:02:35;;;;;;;12.13;8.20;;;26.40;61.50;;;;;;4961647;28;20089;-61
2021/05/03 04:07:56;;;;;;;11.73;7.10;;;26.40;63.30;;;;;;4962654;28;20039;-64
2021/05/03 04:24:08;;;;;;;11.15;8.80;;;26.40;63.50;;;;;;4973277;28;20564;-68
2021/05/03 04:26:35;;;;;;;10.43;7.78;;;26.50;64.40;;;;;;4970296;28;20117;-69
2021/05/03 04:29:03;;;;;;;11.55;8.45;;;26.50;64.70;;;;;;4969209;28;20038;-68
2021/05/03 04:31:31;;;;;;;14.40;9.00;;;26.60;63.50;;;;;;4969435;28;20022;-67
2021/05/03 04:33:58;;;;;;;12.85;8.13;;;26.60;63.30;;;;;;4956741;28;20166;-64
2021/05/03 04:36:26;;;;;;;14.18;7.82;;;26.60;64.80;;;;;;4969176;28;20046;-68
2021/05/03 04:38:53;;;;;;;14.00;7.93;;;26.50;64.30;;;;;;4971351;28;20030;-67
2021/05/03 04:41:20;;;;;;;14.60;8.20;;;26.50;64.70;;;;;;4966230;28;20042;-69
2021/05/03 04:43:48;;;;;;;10.45;7.50;;;26.60;64.50;;;;;;4968436;28;20039;-67
2021/05/03 04:46:16;;;;;;;10.80;8.18;;;26.30;64.90;;;;;;4972484;28;20026;-68
2021/05/03 04:48:44;;;;;;;11.60;7.47;;;26.20;66.60;;;;;;4967720;28;20129;-68
2021/05/03 04:51:12;;;;;;;10.30;7.28;;;26.20;66.20;;;;;;4958838;28;20058;-66
2021/05/03 04:53:39;;;;;;;8.80;6.68;;;26.30;64.30;;;;;;4973290;28;20667;-67
2021/05/03 04:56:06;;;;;;;11.07;7.22;;;26.50;65.20;;;;;;4971428;28;20027;-67
2021/05/03 04:58:34;;;;;;;14.18;7.78;;;26.20;66.30;;;;;;4962251;28;20707;-69
2021/05/03 05:01:01;;;;;;;11.88;7.82;;;26.30;64.80;;;;;;4956670;28;20031;-67
2021/05/03 05:03:28;;;;;;;9.13;6.65;;;26.50;65.40;;;;;;4958062;28;20023;-69
2021/05/03 05:05:56;;;;;;;10.77;6.82;;;26.50;64.20;;;;;;4948421;28;20031;-69
2021/05/03 05:08:23;;;;;;;11.25;7.47;;;26.60;64.60;;;;;;4974276;28;20512;-69
2021/05/03 05:10:51;;;;;;;10.25;7.32;;;26.50;65.30;;;;;;4973569;28;20113;-69
2021/05/03 05:13:20;;;;;;;9.80;6.45;;;26.60;65.20;;;;;;4973474;28;20398;-67
2021/05/03 05:15:47;;;;;;;10.35;6.68;;;26.60;64.80;;;;;;4963354;28;20034;-68
2021/05/03 05:18:15;;;;;;;8.45;7.00;;;26.70;64.80;;;;;;4971686;28;20023;-67
2021/05/03 05:20:42;;;;;;;10.05;7.32;;;26.80;64.80;;;;;;4972123;28;20031;-69
2021/05/03 05:23:11;;;;;;;13.52;7.03;;;26.60;65.00;;;;;;4971472;28;20054;-69
2021/05/03 05:25:42;;;;;;;8.18;5.97;;;26.50;65.20;;;;;;4961277;28;20449;-69
2021/05/03 05:28:10;;;;;;;9.85;6.68;;;26.60;65.20;;;;;;4956488;28;20031;-68
2021/05/03 05:30:37;;;;;;;9.35;6.32;;;26.50;65.60;;;;;;4955847;28;20031;-69
2021/05/03 05:33:04;;;;;;;9.55;6.85;;;26.70;64.10;;;;;;4957550;28;20035;-70
2021/05/03 05:35:32;;;;;;;9.48;7.05;;;26.40;65.80;;;;;;4943850;29;20122;-68
2021/05/03 05:37:59;;;;;;;8.73;6.00;;;26.40;65.60;;;;;;4954613;28;20075;-67
2021/05/03 05:40:26;;;;;;;10.10;6.75;;;26.50;65.40;;;;;;4964475;28;20030;-70
2021/05/03 05:42:54;;;;;;;8.90;6.43;;;26.60;64.20;;;;;;4956746;28;20046;-67
2021/05/03 05:45:21;;;;;;;15.98;8.05;;;26.70;63.80;;;;;;4957955;28;20042;-68
2021/05/03 05:47:48;;;;;;;11.18;7.13;;;26.70;64.10;;;;;;4956464;28;20031;-70
2021/05/03 05:50:16;;;;;;;17.88;7.97;;;26.70;64.70;;;;;;4963549;28;20043;-65
2021/05/03 05:52:43;;;;;;;13.27;8.45;;;26.40;65.60;;;;;;4969914;28;20039;-70
2021/05/03 05:55:11;;;;;;;11.95;8.30;;;26.30;64.70;;;;;;4956802;28;20485;-69
2021/05/03 05:57:39;;;;;;;11.38;8.02;;;26.30;66.30;;;;;;4968853;28;20034;-68
2021/05/03 06:00:08;;;;;;;14.25;8.52;;;26.30;65.80;;;;;;4971593;28;20053;-69
2021/05/03 06:02:35;;;;;;;9.25;7.70;;;26.20;66.40;;;;;;4966230;28;20451;-66
2021/05/03 06:05:02;;;;;;;11.05;7.57;;;26.20;66.40;;;;;;4964265;28;20506;-67
2021/05/03 06:07:30;;;;;;;10.70;7.55;;;26.10;65.90;;;;;;4966639;28;20037;-67
2021/05/03 06:09:57;;;;;;;11.40;7.45;;;26.20;65.00;;;;;;4965612;28;20434;-65
2021/05/03 06:12:25;;;;;;;11.05;7.68;;;26.10;65.60;;;;;;4971858;28;20512;-64
2021/05/03 06:14:53;;;;;;;12.38;7.70;;;26.00;65.90;;;;;;4964032;28;20192;-66
2021/05/03 06:17:21;;;;;;;12.05;7.88;;;25.90;66.30;;;;;;4965653;28;20050;-68
2021/05/03 06:19:49;;;;;;;10.93;8.18;;;25.80;65.90;;;;;;4967930;28;20023;-65
2021/05/03 06:22:17;;;;;;;14.27;7.72;;;25.80;66.30;;;;;;4970897;28;20113;-68
2021/05/03 06:24:44;;;;;;;16.70;8.57;;;25.60;66.40;;;;;;4966235;28;20031;-70
2021/05/03 06:27:15;;;;;;;12.60;8.40;;;25.50;66.90;;;;;;4965153;28;20082;-68
2021/05/03 06:29:42;;;;;;;13.15;8.65;;;25.20;67.60;;;;;;4965642;28;20442;-71
2021/05/03 06:32:09;;;;;;;17.88;9.57;;;25.10;68.90;;;;;;4970233;28;20038;-67
2021/05/03 06:34:37;;;;;;;11.55;8.23;;;24.90;69.20;;;;;;4970682;28;20119;-66
2021/05/03 06:37:07;;;;;;;16.25;8.10;;;24.80;70.00;;;;;;4970197;28;20057;-72
2021/05/03 06:39:35;;;;;;;15.68;8.68;;;24.50;69.20;;;;;;4966034;28;20044;-70
2021/05/03 06:42:02;;;;;;;16.48;9.68;;;24.20;70.80;;;;;;4971807;28;20039;-73
2021/05/03 06:44:30;;;;;;;13.88;7.93;;;23.90;72.50;;;;;;4971764;28;20046;-70
2021/05/03 06:46:59;;;;;;;23.92;8.65;;;23.70;73.40;;;;;;4970560;28;20085;-70
2021/05/03 06:49:26;;;;;;;16.40;6.85;;;23.70;74.30;;;;;;4969917;28;20534;-72
2021/05/03 06:51:54;;;;;;;19.77;7.28;;;23.60;75.30;;;;;;4961579;28;20039;-71
2021/05/03 06:54:21;;;;;;;11.00;7.30;;;23.40;75.80;;;;;;4967674;28;20747;-70
2021/05/03 06:56:49;;;;;;;13.98;9.52;;;23.30;76.40;;;;;;4955047;28;20035;-74
2021/05/03 06:59:17;;;;;;;16.55;8.43;;;23.40;76.90;;;;;;4955916;28;20430;-70
2021/05/03 07:01:48;;;;;;;14.85;7.53;;;23.20;77.90;;;;;;4939347;28;20027;-70
2021/05/03 07:04:15;;;;;;;18.70;9.10;;;23.00;78.70;;;;;;4964729;28;20505;-71
2021/05/03 07:06:42;;;;;;;10.88;9.48;;;23.10;78.90;;;;;;4959785;28;20030;-75
2021/05/03 07:09:11;;;;;;;11.27;6.53;;;22.80;80.30;;;;;;4958030;28;20039;-71
2021/05/03 07:11:40;;;;;;;13.60;5.47;;;22.90;80.70;;;;;;4945746;28;20027;-75
2021/05/03 07:14:07;;;;;;;13.90;5.82;;;22.60;81.60;;;;;;4956292;28;20023;-73
2021/05/03 07:16:35;;;;;;;10.15;4.32;;;22.30;82.80;;;;;;4965152;28;20062;-68
2021/05/03 07:19:03;;;;;;;16.30;5.20;;;22.10;83.80;;;;;;4964185;28;20035;-72
2021/05/03 07:21:31;;;;;;;16.30;8.05;;;22.20;84.00;;;;;;4951134;28;20030;-66
2021/05/03 07:23:58;;;;;;;13.52;9.00;;;22.30;83.90;;;;;;4965183;28;20058;-64
2021/05/03 07:26:27;;;;;;;9.90;7.28;;;22.30;83.80;;;;;;4968434;28;20038;-67
2021/05/03 07:28:54;;;;;;;16.38;9.77;;;22.30;84.00;;;;;;4965825;28;20067;-72
2021/05/03 07:31:25;;;;;;;11.05;8.23;;;22.20;84.00;;;;;;4965087;28;20069;-69
2021/05/03 07:33:52;;;;;;;18.60;6.03;;;22.10;85.20;;;;;;4972407;28;20534;-66
2021/05/03 07:36:22;;;;;;;10.43;6.95;;;22.20;84.70;;;;;;4966928;28;20138;-68
2021/05/03 07:38:52;;;;;;;17.67;11.15;;;22.30;84.40;;;;;;4971327;28;20027;-66
2021/05/03 07:41:19;;;;;;;13.32;5.50;;;22.40;83.80;;;;;;4971685;28;20030;-67
2021/05/03 07:43:48;;;;;;;15.40;6.18;;;22.40;84.00;;;;;;4967962;28;20462;-70
2021/05/03 07:46:17;;;;;;;13.23;6.07;;;22.30;84.20;;;;;;4958288;28;20035;-66
2021/05/03 07:48:44;;;;;;;13.65;11.05;;;22.30;84.30;;;;;;4964086;28;20526;-71
2021/05/03 07:51:12;;;;;;;8.35;5.40;;;22.30;84.30;;;;;;4970333;28;20043;-70
2021/05/03 07:53:39;;;;;;;17.00;5.75;;;22.30;84.20;;;;;;4974859;28;20030;-67
2021/05/03 07:56:06;;;;;;;18.45;9.75;;;22.30;84.40;;;;;;4972697;28;20037;-69
2021/05/03 07:58:34;;;;;;;11.65;6.05;;;22.30;84.70;;;;;;4972255;28;20464;-66
2021/05/03 08:01:01;;;;;;;20.13;8.07;;;22.20;84.60;;;;;;4964944;28;20061;-68
2021/05/03 08:03:28;;;;;;;20.02;12.60;;;22.20;84.60;;;;;;4960904;28;20470;-64
2021/05/03 08:05:56;;;;;;;9.32;6.35;;;22.20;85.00;;;;;;4968174;28;20030;-65
2021/05/03 08:08:23;;;;;;;14.60;6.00;;;22.20;84.70;;;;;;4965371;28;20031;-68
2021/05/03 08:10:50;;;;;;;12.55;3.90;;;22.20;84.60;;;;;;4971914;28;20027;-67
2021/05/03 08:13:18;;;;;;;13.25;5.90;;;22.20;84.70;;;;;;4958142;28;20023;-66
2021/05/03 08:15:48;;;;;;;6.45;3.25;;;22.20;84.90;;;;;;4958640;28;20126;-69
2021/05/03 08:18:15;;;;;;;6.68;3.17;;;22.10;84.60;;;;;;4965287;28;20035;-68
2021/05/03 08:20:42;;;;;;;9.32;2.15;;;22.10;85.10;;;;;;4955998;28;20032;-68
2021/05/03 08:23:12;;;;;;;18.27;5.45;;;22.00;85.00;;;;;;4972432;28;20143;-68
2021/05/03 08:25:41;;;;;;;4.30;2.55;;;22.10;85.30;;;;;;4956920;28;20038;-70
2021/05/03 08:28:08;;;;;;;14.82;4.05;;;22.00;85.20;;;;;;4963937;28;20094;-68
2021/05/03 08:30:35;;;;;;;9.20;3.30;;;22.10;85.90;;;;;;4968778;28;20027;-64
2021/05/03 08:33:03;;;;;;;13.77;3.88;;;22.10;85.50;;;;;;4957129;28;20653;-69
2021/05/03 08:35:32;;;;;;;6.68;3.67;;;22.20;85.70;;;;;;4945115;29;20061;-67
2021/05/03 08:38:00;;;;;;;8.55;4.30;;;22.30;85.70;;;;;;4967773;28;20023;-68
2021/05/03 08:40:28;;;;;;;10.23;5.30;;;22.30;85.80;;;;;;4967279;28;20069;-69
2021/05/03 08:42:56;;;;;;;12.70;4.90;;;22.30;85.60;;;;;;4957655;28;20028;-66
2021/05/03 08:45:24;;;;;;;10.27;3.92;;;22.30;86.10;;;;;;4955413;28;20034;-68
2021/05/03 08:51:49;;;;;;;13.05;4.70;;;22.40;86.40;;;;;;4956369;28;20039;-72
2021/05/03 08:53:44;;;;;;;15.13;5.13;;;22.40;87.60;;;;;;4945734;28;20553;-66
2021/05/03 08:56:12;;;;;;;13.10;5.90;;;22.40;88.10;;;;;;4974546;28;20061;-69
2021/05/03 08:58:41;;;;;;;16.00;7.93;;;22.40;88.20;;;;;;4957514;28;20043;-69
2021/05/03 09:01:08;;;;;;;14.93;8.20;;;22.40;88.60;;;;;;4959302;28;20481;-70
2021/05/03 09:03:37;;;;;;;19.10;9.82;;;22.40;89.00;;;;;;4963157;28;20038;-64
2021/05/03 09:06:05;;;;;;;26.10;21.63;;;22.40;90.20;;;;;;4972551;28;20023;-67
2021/05/03 09:08:33;;;;;;;35.90;30.25;;;22.40;88.80;;;;;;4966100;28;20145;-64
2021/05/03 09:11:00;;;;;;;20.77;15.38;;;22.40;89.00;;;;;;4964307;28;20027;-68
2021/05/03 09:13:29;;;;;;;23.88;15.88;;;22.40;88.30;;;;;;4976781;28;20069;-73
2021/05/03 09:16:21;;;;;;;41.00;36.60;;;22.40;87.80;;;;;;4974956;28;20044;-71
2021/05/03 09:18:50;;;;;;;26.15;22.85;;;22.40;88.60;;;;;;4971410;28;20047;-67
2021/05/03 09:21:22;;;;;;;29.10;20.77;;;22.40;88.10;;;;;;4974956;28;20038;-71
2021/05/03 09:24:17;;;;;;;32.08;25.98;;;22.40;87.40;;;;;;4966946;28;20089;-63
2021/05/03 09:27:07;;;;;;;21.55;19.25;;;22.30;87.30;;;;;;4963166;28;20386;-69
2021/05/03 09:29:47;;;;;;;29.48;25.65;;;22.30;86.50;;;;;;4964757;28;20117;-66
2021/05/03 09:32:20;;;;;;;24.15;15.35;;;22.30;86.50;;;;;;4967619;28;20023;-63
2021/05/03 09:34:54;;;;;;;25.15;21.02;;;22.30;87.50;;;;;;4958809;28;20026;-67
2021/05/03 09:37:29;;;;;;;27.08;15.57;;;22.40;87.10;;;;;;4949564;28;20441;-65
2021/05/03 09:40:16;;;;;;;37.92;33.88;;;22.40;87.70;;;;;;4972147;28;20089;-66
2021/05/03 09:42:55;;;;;;;15.98;5.75;;;22.30;86.10;;;;;;4967510;28;20070;-67
2021/05/03 09:45:24;;;;;;;19.15;5.55;;;22.20;84.50;;;;;;4967939;28;20022;-65
2021/05/03 09:47:56;;;;;;;9.63;4.07;;;22.10;85.40;;;;;;4969124;28;20023;-67
2021/05/03 09:50:26;;;;;;;12.63;4.30;;;22.10;85.20;;;;;;4968955;28;20054;-65
2021/05/03 09:53:10;;;;;;;9.25;3.20;;;22.10;85.40;;;;;;4968809;28;20011;-67
2021/05/03 09:55:46;;;;;;;10.13;3.60;;;22.00;86.50;;;;;;4965556;28;20081;-65
2021/05/03 09:58:17;;;;;;;6.88;3.58;;;22.10;88.20;;;;;;4972594;28;20161;-67
2021/05/03 10:00:55;;;;;;;9.15;4.18;;;22.10;88.80;;;;;;4970017;28;20041;-67
2021/05/03 10:03:47;;;;;;;11.35;3.65;;;22.20;89.70;;;;;;4971011;28;20477;-69
2021/05/03 10:06:17;;;;;;;5.93;3.05;;;22.30;89.80;;;;;;4964463;28;20428;-66
2021/05/03 10:08:49;;;;;;;8.52;3.60;;;22.30;90.00;;;;;;4976163;28;20576;-67
2021/05/03 10:11:18;;;;;;;8.38;3.67;;;22.40;90.20;;;;;;4979878;28;20042;-64
2021/05/03 10:13:48;;;;;;;13.77;4.30;;;22.40;90.30;;;;;;4976866;28;20023;-64
2021/05/03 10:16:18;;;;;;;11.15;4.43;;;22.40;90.40;;;;;;4967686;28;20125;-64
2021/05/03 10:18:45;;;;;;;10.77;3.20;;;22.40;90.30;;;;;;4970708;28;20026;-64
2021/05/03 10:21:14;;;;;;;20.60;4.15;;;22.40;90.40;;;;;;4969250;28;20038;-67
2021/05/03 10:23:44;;;;;;;15.07;4.53;;;22.40;90.50;;;;;;4972294;28;20055;-65
2021/05/03 10:26:12;;;;;;;13.63;4.55;;;22.50;90.80;;;;;;4967075;28;20038;-66
2021/05/03 10:28:54;;;;;;;13.95;3.58;;;22.50;91.20;;;;;;4970147;28;20050;-66
2021/05/03 10:31:23;;;;;;;18.05;4.20;;;22.60;90.70;;;;;;4970943;28;21339;-62
2021/05/03 10:33:52;;;;;;;11.02;4.00;;;22.50;90.80;;;;;;4971755;28;20042;-65
2021/05/03 10:36:39;;;;;;;29.58;6.55;;;22.50;91.40;;;;;;4963163;28;20030;-63
2021/05/03 10:39:28;;;;;;;41.30;25.90;;;22.60;91.40;;;;;;4953472;28;20034;-70
2021/05/03 10:42:06;;;;;;;29.67;19.13;;;22.60;90.40;;;;;;4969357;28;20031;-63
2021/05/03 10:44:36;;;;;;;27.17;9.82;;;22.50;90.10;;;;;;4970779;28;20070;-62
2021/05/03 10:47:36;;;;;;;26.95;18.05;;;22.50;89.90;;;;;;4964761;28;20023;-67
2021/05/03 10:50:05;;;;;;;26.70;12.88;;;22.40;89.70;;;;;;4971713;28;20089;-67
2021/05/03 10:52:37;;;;;;;24.73;16.30;;;22.40;90.00;;;;;;4969383;28;20536;-67
2021/05/03 10:55:05;;;;;;;18.00;8.88;;;22.30;89.80;;;;;;4954075;28;20031;-65
2021/05/03 10:57:35;;;;;;;12.20;8.40;;;22.30;89.20;;;;;;4949658;28;20031;-71
2021/05/03 11:00:08;;;;;;;20.95;9.27;;;22.30;89.10;;;;;;4968681;28;20027;-66
2021/05/03 11:02:44;;;;;;;20.42;10.00;;;22.30;89.70;;;;;;4963906;28;20042;-65
2021/05/03 11:05:24;;;;;;;25.80;11.20;;;22.30;90.10;;;;;;4970750;28;20050;-66
2021/05/03 11:08:07;;;;;;;33.90;12.95;;;22.20;90.00;;;;;;4966171;28;20082;-65
2021/05/03 11:10:59;;;;;;;31.98;14.05;;;22.20;90.00;;;;;;4967789;28;20472;-63
2021/05/03 11:13:49;;;;;;;29.75;13.55;;;22.20;90.00;;;;;;4960297;28;20022;-66
2021/05/03 11:16:30;;;;;;;27.67;14.25;;;22.20;90.00;;;;;;4969861;28;20034;-66
2021/05/03 11:19:00;;;;;;;24.70;12.70;;;22.20;90.00;;;;;;4967680;28;20026;-63
2021/05/03 11:21:49;;;;;;;28.50;12.73;;;22.20;89.80;;;;;;4970963;28;20553;-62
2021/05/03 11:24:28;;;;;;;27.45;13.07;;;22.10;89.80;;;;;;4969984;28;20110;-68
2021/05/03 11:27:05;;;;;;;29.52;14.70;;;22.10;90.00;;;;;;4972244;28;20026;-67
2021/05/03 11:32:36;;;;;;;24.50;14.38;;;22.10;90.00;;;;;;4933452;28;20043;-65
2021/05/03 11:35:23;;;;;;;27.00;15.60;;;22.10;90.00;;;;;;4973899;28;20034;-66
2021/05/03 11:38:06;;;;;;;25.98;15.75;;;22.10;90.10;;;;;;4971900;28;20082;-66
2021/05/03 11:41:00;;;;;;;23.33;15.35;;;22.10;89.90;;;;;;4972343;28;20042;-67
2021/05/03 11:46:11;;;;;;;23.80;14.05;;;22.00;89.70;;;;;;4969429;28;20030;-67
2021/05/03 11:48:39;;;;;;;20.50;13.80;;;22.00;90.00;;;;;;4976170;28;20035;-63
2021/05/03 11:51:08;;;;;;;25.38;15.32;;;21.90;89.80;;;;;;4973227;28;20047;-68
2021/05/03 11:53:44;;;;;;;23.88;15.00;;;21.90;89.70;;;;;;4972139;28;20019;-62
2021/05/03 11:56:31;;;;;;;28.88;15.48;;;21.80;89.80;;;;;;4973760;28;20489;-67
2021/05/03 11:59:00;;;;;;;26.13;14.27;;;21.80;89.70;;;;;;4970657;28;20032;-65
2021/05/03 12:01:29;;;;;;;26.20;14.48;;;21.90;90.00;;;;;;4966575;28;20018;-61
2021/05/03 12:03:59;;;;;;;23.67;13.98;;;21.80;90.00;;;;;;4964960;28;20039;-60
2021/05/03 12:06:40;;;;;;;23.52;14.40;;;21.80;89.70;;;;;;4970632;28;20027;-65
2021/05/03 12:09:14;;;;;;;25.45;14.93;;;21.80;89.90;;;;;;4971220;28;20512;-64
2021/05/03 12:12:03;;;;;;;20.88;12.80;;;21.80;89.80;;;;;;4958981;28;20035;-68
2021/05/03 12:14:48;;;;;;;21.90;14.40;;;21.80;89.80;;;;;;4965356;28;20520;-63
2021/05/03 12:17:26;;;;;;;25.48;14.13;;;21.80;89.80;;;;;;4974095;28;20393;-60
2021/05/03 12:20:03;;;;;;;22.38;13.77;;;21.70;89.80;;;;;;4973261;28;20027;-64
2021/05/03 12:22:31;;;;;;;22.75;13.35;;;21.70;89.70;;;;;;4973594;28;20045;-65
2021/05/03 12:25:06;;;;;;;23.23;13.43;;;21.70;89.40;;;;;;4974494;28;20038;-62
2021/05/03 12:27:35;;;;;;;19.55;12.55;;;21.70;89.80;;;;;;4972435;28;20054;-62
2021/05/03 12:30:08;;;;;;;20.08;11.98;;;21.70;89.40;;;;;;4973376;28;20042;-64
2021/05/03 12:32:38;;;;;;;21.73;13.68;;;21.70;89.50;;;;;;4973073;28;20473;-64
2021/05/03 12:35:08;;;;;;;19.20;13.00;;;21.70;89.70;;;;;;4971828;28;20039;-61
2021/05/03 12:37:36;;;;;;;19.55;13.40;;;21.70;89.60;;;;;;4973344;28;20027;-65
2021/05/03 12:40:17;;;;;;;21.52;12.43;;;21.70;89.40;;;;;;4975303;28;20117;-61
2021/05/03 12:42:47;;;;;;;21.90;11.53;;;21.70;89.30;;;;;;4969634;28;20191;-64
2021/05/03 12:45:27;;;;;;;28.25;13.57;;;21.70;89.40;;;;;;4972492;28;20078;-61
2021/05/03 12:53:35;;;;;;;22.15;12.52;;;21.60;89.20;;;;;;4970501;28;20049;-60
2021/05/03 12:58:55;;;;;;;21.45;12.68;;;21.60;89.60;;;;;;4953323;28;20119;-67
2021/05/03 13:07:30;;;;;;;19.85;11.93;;;21.50;89.10;;;;;;4971851;28;20511;-60
2021/05/03 13:29:56;;;;;;;16.65;10.43;;;21.50;89.10;;;;;;4971917;28;20534;-65
2021/05/03 13:32:30;;;;;;;19.35;11.43;;;21.50;89.10;;;;;;4974103;28;20040;-65
2021/05/03 13:35:01;;;;;;;18.40;10.73;;;21.50;89.10;;;;;;4970452;28;20034;-64
2021/05/03 13:37:28;;;;;;;15.70;10.90;;;21.50;89.20;;;;;;4958858;28;20397;-64
2021/05/03 13:39:56;;;;;;;14.60;10.07;;;21.40;89.00;;;;;;4972055;28;20031;-64
2021/05/03 13:42:23;;;;;;;17.42;10.05;;;21.50;89.10;;;;;;4950890;28;20105;-67
2021/05/03 13:44:51;;;;;;;18.38;10.98;;;21.40;89.00;;;;;;4967886;28;20118;-66
2021/05/03 13:47:20;;;;;;;17.20;10.50;;;21.40;89.00;;;;;;4970618;28;20038;-68